Grafton, Illinois
Current Conditions -  °F | °C
As of 4:54 PM on Saturday 25 Oct 2014 (Local Time) from KSET Reporting Station
Clear Clear  
Wind Chill: 79°   Ceiling: Unl
Heat Index: 79°   Visibility: 10mi
Dew Point: 48°   Wind: 6mph
Humidity: 34%   Direction: 350°N
Pressure: 29.99"   Gusts: NA
Location:  38.97°N, 90.43°W
Report Text: KSET 252154Z AUTO 35005KT 10SM CLR 26/09 A2999 RMK AO2 SLP153 T02610089
Loading
Personal Weather Stations






























Interactive Weather Map
Tropical Storm Tracking
New forecast layout! Learn more

10-Day Weather Forecast

Advertisements
Track Severe Weather on mobile